sensor_id;sensor_type;location;lat;lon;timestamp;P1;durP1;ratioP1;P2;durP2;ratioP2
75050;SDS011;63628;47.656;11.310;2024-03-22T00:01:16;3.33;;;2.83;;
75050;SDS011;63628;47.656;11.310;2024-03-22T00:03:41;3.92;;;3.08;;
75050;SDS011;63628;47.656;11.310;2024-03-22T00:06:07;4.13;;;3.25;;
75050;SDS011;63628;47.656;11.310;2024-03-22T00:08:33;4.03;;;2.90;;
75050;SDS011;63628;47.656;11.310;2024-03-22T00:10:58;3.85;;;3.10;;
75050;SDS011;63628;47.656;11.310;2024-03-22T00:13:24;3.97;;;3.17;;
75050;SDS011;63628;47.656;11.310;2024-03-22T00:15:49;3.35;;;2.67;;
75050;SDS011;63628;47.656;11.310;2024-03-22T00:18:15;3.53;;;2.80;;
75050;SDS011;63628;47.656;11.310;2024-03-22T00:20:41;4.35;;;2.90;;
75050;SDS011;63628;47.656;11.310;2024-03-22T00:23:06;4.97;;;3.05;;
75050;SDS011;63628;47.656;11.310;2024-03-22T00:25:32;11.70;;;8.02;;
75050;SDS011;63628;47.656;11.310;2024-03-22T00:27:57;5.45;;;3.03;;
75050;SDS011;63628;47.656;11.310;2024-03-22T00:30:23;3.17;;;2.72;;
75050;SDS011;63628;47.656;11.310;2024-03-22T00:32:48;3.88;;;2.85;;
75050;SDS011;63628;47.656;11.310;2024-03-22T00:35:14;9.32;;;6.68;;
75050;SDS011;63628;47.656;11.310;2024-03-22T00:37:40;5.32;;;3.65;;
75050;SDS011;63628;47.656;11.310;2024-03-22T00:40:05;3.97;;;3.17;;
75050;SDS011;63628;47.656;11.310;2024-03-22T00:42:31;3.85;;;3.10;;
75050;SDS011;63628;47.656;11.310;2024-03-22T00:44:57;3.72;;;2.63;;
75050;SDS011;63628;47.656;11.310;2024-03-22T00:47:23;4.15;;;3.20;;
75050;SDS011;63628;47.656;11.310;2024-03-22T00:49:49;6.20;;;3.60;;
75050;SDS011;63628;47.656;11.310;2024-03-22T00:52:15;3.75;;;3.20;;
75050;SDS011;63628;47.656;11.310;2024-03-22T00:54:41;4.65;;;3.25;;
75050;SDS011;63628;47.656;11.310;2024-03-22T00:57:06;4.85;;;3.10;;
75050;SDS011;63628;47.656;11.310;2024-03-22T00:59:32;4.20;;;2.70;;
75050;SDS011;63628;47.656;11.310;2024-03-22T01:01:58;4.00;;;3.03;;
75050;SDS011;63628;47.656;11.310;2024-03-22T01:04:23;3.80;;;3.33;;
75050;SDS011;63628;47.656;11.310;2024-03-22T01:06:49;4.22;;;3.08;;
75050;SDS011;63628;47.656;11.310;2024-03-22T01:09:15;3.97;;;3.17;;
75050;SDS011;63628;47.656;11.310;2024-03-22T01:11:40;4.93;;;3.08;;
75050;SDS011;63628;47.656;11.310;2024-03-22T01:14:06;3.38;;;3.08;;
75050;SDS011;63628;47.656;11.310;2024-03-22T01:16:31;4.47;;;3.40;;
75050;SDS011;63628;47.656;11.310;2024-03-22T01:18:57;4.75;;;3.42;;
75050;SDS011;63628;47.656;11.310;2024-03-22T01:21:22;4.13;;;3.08;;
75050;SDS011;63628;47.656;11.310;2024-03-22T01:23:53;3.40;;;2.90;;
75050;SDS011;63628;47.656;11.310;2024-03-22T01:26:19;4.22;;;3.35;;
75050;SDS011;63628;47.656;11.310;2024-03-22T01:28:45;4.18;;;3.05;;
75050;SDS011;63628;47.656;11.310;2024-03-22T01:31:11;4.38;;;3.50;;
75050;SDS011;63628;47.656;11.310;2024-03-22T01:33:37;3.72;;;2.85;;
75050;SDS011;63628;47.656;11.310;2024-03-22T01:36:02;3.75;;;2.92;;
75050;SDS011;63628;47.656;11.310;2024-03-22T01:38:30;3.90;;;3.30;;
75050;SDS011;63628;47.656;11.310;2024-03-22T01:40:56;3.78;;;3.10;;
75050;SDS011;63628;47.656;11.310;2024-03-22T01:43:22;4.28;;;3.45;;
75050;SDS011;63628;47.656;11.310;2024-03-22T01:45:47;3.30;;;2.83;;
75050;SDS011;63628;47.656;11.310;2024-03-22T01:48:13;4.75;;;3.50;;
75050;SDS011;63628;47.656;11.310;2024-03-22T01:50:39;4.38;;;3.35;;
75050;SDS011;63628;47.656;11.310;2024-03-22T01:53:05;5.15;;;3.55;;
75050;SDS011;63628;47.656;11.310;2024-03-22T01:55:31;5.18;;;3.42;;
75050;SDS011;63628;47.656;11.310;2024-03-22T01:57:56;4.13;;;3.22;;
75050;SDS011;63628;47.656;11.310;2024-03-22T02:00:22;3.97;;;3.33;;
75050;SDS011;63628;47.656;11.310;2024-03-22T02:02:48;5.18;;;3.85;;
75050;SDS011;63628;47.656;11.310;2024-03-22T02:05:17;4.15;;;3.45;;
75050;SDS011;63628;47.656;11.310;2024-03-22T02:07:47;4.07;;;3.40;;
75050;SDS011;63628;47.656;11.310;2024-03-22T02:10:13;4.57;;;3.70;;
75050;SDS011;63628;47.656;11.310;2024-03-22T02:12:39;4.10;;;3.35;;
75050;SDS011;63628;47.656;11.310;2024-03-22T02:15:06;4.80;;;3.97;;
75050;SDS011;63628;47.656;11.310;2024-03-22T02:17:33;4.10;;;3.25;;
75050;SDS011;63628;47.656;11.310;2024-03-22T02:20:00;3.85;;;3.35;;
75050;SDS011;63628;47.656;11.310;2024-03-22T02:22:26;4.20;;;3.38;;
75050;SDS011;63628;47.656;11.310;2024-03-22T02:24:52;3.53;;;3.22;;
75050;SDS011;63628;47.656;11.310;2024-03-22T02:27:18;4.38;;;3.22;;
75050;SDS011;63628;47.656;11.310;2024-03-22T02:29:43;3.78;;;3.25;;
75050;SDS011;63628;47.656;11.310;2024-03-22T02:32:09;4.03;;;3.63;;
75050;SDS011;63628;47.656;11.310;2024-03-22T02:34:35;5.60;;;3.47;;
75050;SDS011;63628;47.656;11.310;2024-03-22T02:37:01;4.43;;;3.58;;
75050;SDS011;63628;47.656;11.310;2024-03-22T02:39:27;3.95;;;3.20;;
75050;SDS011;63628;47.656;11.310;2024-03-22T02:41:54;5.00;;;3.40;;
75050;SDS011;63628;47.656;11.310;2024-03-22T02:44:19;3.53;;;3.22;;
75050;SDS011;63628;47.656;11.310;2024-03-22T02:46:45;4.85;;;3.60;;
75050;SDS011;63628;47.656;11.310;2024-03-22T02:49:11;4.55;;;3.60;;
75050;SDS011;63628;47.656;11.310;2024-03-22T02:51:36;3.92;;;3.45;;
75050;SDS011;63628;47.656;11.310;2024-03-22T02:54:02;3.47;;;3.10;;
75050;SDS011;63628;47.656;11.310;2024-03-22T02:56:27;4.18;;;3.42;;
75050;SDS011;63628;47.656;11.310;2024-03-22T02:58:53;3.90;;;3.40;;
75050;SDS011;63628;47.656;11.310;2024-03-22T03:01:18;3.92;;;3.13;;
75050;SDS011;63628;47.656;11.310;2024-03-22T03:03:44;3.97;;;3.35;;
75050;SDS011;63628;47.656;11.310;2024-03-22T03:06:10;4.50;;;3.22;;
75050;SDS011;63628;47.656;11.310;2024-03-22T03:08:38;3.78;;;3.33;;
75050;SDS011;63628;47.656;11.310;2024-03-22T03:11:04;4.03;;;2.88;;
75050;SDS011;63628;47.656;11.310;2024-03-22T03:13:30;4.57;;;3.53;;
75050;SDS011;63628;47.656;11.310;2024-03-22T03:15:56;4.05;;;3.38;;
75050;SDS011;63628;47.656;11.310;2024-03-22T03:18:22;4.60;;;3.35;;
75050;SDS011;63628;47.656;11.310;2024-03-22T03:20:48;4.38;;;3.60;;
75050;SDS011;63628;47.656;11.310;2024-03-22T03:23:13;4.15;;;3.22;;
75050;SDS011;63628;47.656;11.310;2024-03-22T03:25:39;3.50;;;3.17;;
75050;SDS011;63628;47.656;11.310;2024-03-22T03:28:05;3.47;;;3.00;;
75050;SDS011;63628;47.656;11.310;2024-03-22T03:30:33;3.58;;;3.15;;
75050;SDS011;63628;47.656;11.310;2024-03-22T03:33:00;4.13;;;3.45;;
75050;SDS011;63628;47.656;11.310;2024-03-22T03:35:26;4.47;;;3.10;;
75050;SDS011;63628;47.656;11.310;2024-03-22T03:37:52;4.30;;;3.70;;
75050;SDS011;63628;47.656;11.310;2024-03-22T03:40:18;3.90;;;3.05;;
75050;SDS011;63628;47.656;11.310;2024-03-22T03:42:44;4.63;;;3.67;;
75050;SDS011;63628;47.656;11.310;2024-03-22T03:45:09;27.15;;;5.47;;
75050;SDS011;63628;47.656;11.310;2024-03-22T03:47:35;6.50;;;4.22;;
75050;SDS011;63628;47.656;11.310;2024-03-22T03:50:00;4.70;;;3.15;;
75050;SDS011;63628;47.656;11.310;2024-03-22T03:52:26;4.28;;;3.33;;
75050;SDS011;63628;47.656;11.310;2024-03-22T03:54:51;3.38;;;2.90;;
75050;SDS011;63628;47.656;11.310;2024-03-22T03:57:17;3.95;;;2.97;;
75050;SDS011;63628;47.656;11.310;2024-03-22T03:59:43;4.22;;;3.60;;
75050;SDS011;63628;47.656;11.310;2024-03-22T04:02:08;5.78;;;3.88;;
75050;SDS011;63628;47.656;11.310;2024-03-22T04:04:34;5.35;;;3.83;;
75050;SDS011;63628;47.656;11.310;2024-03-22T04:06:59;4.60;;;3.50;;
75050;SDS011;63628;47.656;11.310;2024-03-22T04:09:25;3.97;;;3.50;;
75050;SDS011;63628;47.656;11.310;2024-03-22T04:11:50;7.05;;;4.90;;
75050;SDS011;63628;47.656;11.310;2024-03-22T04:14:16;5.72;;;3.50;;
75050;SDS011;63628;47.656;11.310;2024-03-22T04:16:41;4.00;;;3.20;;
75050;SDS011;63628;47.656;11.310;2024-03-22T04:19:07;7.07;;;4.60;;
75050;SDS011;63628;47.656;11.310;2024-03-22T04:21:33;4.40;;;3.38;;
75050;SDS011;63628;47.656;11.310;2024-03-22T04:23:58;5.30;;;3.65;;
75050;SDS011;63628;47.656;11.310;2024-03-22T04:26:24;5.10;;;3.60;;
75050;SDS011;63628;47.656;11.310;2024-03-22T04:28:49;3.85;;;2.92;;
75050;SDS011;63628;47.656;11.310;2024-03-22T04:31:15;4.22;;;3.13;;
75050;SDS011;63628;47.656;11.310;2024-03-22T04:33:41;5.35;;;4.03;;
75050;SDS011;63628;47.656;11.310;2024-03-22T04:36:06;3.97;;;3.22;;
75050;SDS011;63628;47.656;11.310;2024-03-22T04:38:34;5.40;;;3.33;;
75050;SDS011;63628;47.656;11.310;2024-03-22T04:41:00;3.88;;;3.17;;
75050;SDS011;63628;47.656;11.310;2024-03-22T04:43:27;5.40;;;4.07;;
75050;SDS011;63628;47.656;11.310;2024-03-22T04:45:53;4.38;;;3.47;;
75050;SDS011;63628;47.656;11.310;2024-03-22T04:48:19;6.35;;;4.15;;
75050;SDS011;63628;47.656;11.310;2024-03-22T04:50:52;4.20;;;3.70;;
75050;SDS011;63628;47.656;11.310;2024-03-22T04:53:18;3.50;;;3.20;;
75050;SDS011;63628;47.656;11.310;2024-03-22T04:55:46;4.20;;;3.40;;
75050;SDS011;63628;47.656;11.310;2024-03-22T04:58:13;3.88;;;2.90;;
75050;SDS011;63628;47.656;11.310;2024-03-22T05:00:39;3.50;;;2.97;;
75050;SDS011;63628;47.656;11.310;2024-03-22T05:03:05;5.82;;;3.83;;
75050;SDS011;63628;47.656;11.310;2024-03-22T05:05:31;4.15;;;3.15;;
75050;SDS011;63628;47.656;11.310;2024-03-22T05:07:56;3.90;;;3.10;;
75050;SDS011;63628;47.656;11.310;2024-03-22T05:10:22;5.75;;;3.50;;
75050;SDS011;63628;47.656;11.310;2024-03-22T05:12:47;3.30;;;2.75;;
75050;SDS011;63628;47.656;11.310;2024-03-22T05:15:13;3.77;;;3.00;;
75050;SDS011;63628;47.656;11.310;2024-03-22T05:17:38;3.77;;;3.00;;
75050;SDS011;63628;47.656;11.310;2024-03-22T05:20:06;4.73;;;3.50;;
75050;SDS011;63628;47.656;11.310;2024-03-22T05:22:38;4.30;;;2.83;;
75050;SDS011;63628;47.656;11.310;2024-03-22T05:25:05;3.95;;;3.13;;
75050;SDS011;63628;47.656;11.310;2024-03-22T05:27:31;4.47;;;2.88;;
75050;SDS011;63628;47.656;11.310;2024-03-22T05:29:58;4.13;;;3.13;;
75050;SDS011;63628;47.656;11.310;2024-03-22T05:32:24;6.53;;;3.67;;
75050;SDS011;63628;47.656;11.310;2024-03-22T05:34:50;3.70;;;2.80;;
75050;SDS011;63628;47.656;11.310;2024-03-22T05:37:16;3.73;;;2.83;;
75050;SDS011;63628;47.656;11.310;2024-03-22T05:39:42;4.40;;;3.00;;
75050;SDS011;63628;47.656;11.310;2024-03-22T05:42:08;3.13;;;2.60;;
75050;SDS011;63628;47.656;11.310;2024-03-22T05:44:33;4.03;;;3.10;;
75050;SDS011;63628;47.656;11.310;2024-03-22T05:46:59;3.27;;;2.73;;
75050;SDS011;63628;47.656;11.310;2024-03-22T05:49:25;3.60;;;2.80;;
75050;SDS011;63628;47.656;11.310;2024-03-22T05:51:51;4.50;;;3.07;;
75050;SDS011;63628;47.656;11.310;2024-03-22T05:54:16;4.37;;;3.00;;
75050;SDS011;63628;47.656;11.310;2024-03-22T05:56:42;3.53;;;2.80;;
75050;SDS011;63628;47.656;11.310;2024-03-22T05:59:07;5.00;;;3.03;;
75050;SDS011;63628;47.656;11.310;2024-03-22T06:01:33;3.40;;;2.93;;
75050;SDS011;63628;47.656;11.310;2024-03-22T06:03:59;4.17;;;3.20;;
75050;SDS011;63628;47.656;11.310;2024-03-22T06:06:25;3.17;;;2.50;;
75050;SDS011;63628;47.656;11.310;2024-03-22T06:08:52;3.17;;;2.60;;
75050;SDS011;63628;47.656;11.310;2024-03-22T06:11:19;4.13;;;3.07;;
75050;SDS011;63628;47.656;11.310;2024-03-22T06:13:45;5.27;;;3.30;;
75050;SDS011;63628;47.656;11.310;2024-03-22T06:16:10;5.87;;;3.33;;
75050;SDS011;63628;47.656;11.310;2024-03-22T06:18:36;4.43;;;3.00;;
75050;SDS011;63628;47.656;11.310;2024-03-22T06:21:02;4.57;;;3.07;;
75050;SDS011;63628;47.656;11.310;2024-03-22T06:23:28;2.90;;;2.60;;
75050;SDS011;63628;47.656;11.310;2024-03-22T06:25:55;2.93;;;2.50;;
75050;SDS011;63628;47.656;11.310;2024-03-22T06:28:21;2.87;;;2.03;;
75050;SDS011;63628;47.656;11.310;2024-03-22T06:30:47;3.80;;;2.67;;
75050;SDS011;63628;47.656;11.310;2024-03-22T06:33:13;3.30;;;2.47;;
75050;SDS011;63628;47.656;11.310;2024-03-22T06:35:39;3.23;;;2.60;;
75050;SDS011;63628;47.656;11.310;2024-03-22T06:38:04;3.57;;;2.50;;
75050;SDS011;63628;47.656;11.310;2024-03-22T06:40:30;3.67;;;2.77;;
75050;SDS011;63628;47.656;11.310;2024-03-22T06:42:56;3.07;;;2.33;;
75050;SDS011;63628;47.656;11.310;2024-03-22T06:45:22;2.80;;;2.50;;
75050;SDS011;63628;47.656;11.310;2024-03-22T06:47:47;6.30;;;3.40;;
75050;SDS011;63628;47.656;11.310;2024-03-22T06:50:13;4.67;;;2.50;;
75050;SDS011;63628;47.656;11.310;2024-03-22T06:52:38;3.20;;;2.57;;
75050;SDS011;63628;47.656;11.310;2024-03-22T06:55:04;4.33;;;3.33;;
75050;SDS011;63628;47.656;11.310;2024-03-22T06:57:30;8.07;;;3.33;;
75050;SDS011;63628;47.656;11.310;2024-03-22T06:59:56;7.53;;;4.37;;
75050;SDS011;63628;47.656;11.310;2024-03-22T07:02:21;8.73;;;3.90;;
75050;SDS011;63628;47.656;11.310;2024-03-22T07:04:47;6.07;;;3.57;;
75050;SDS011;63628;47.656;11.310;2024-03-22T07:07:12;3.17;;;2.70;;
75050;SDS011;63628;47.656;11.310;2024-03-22T07:09:38;5.33;;;3.43;;
75050;SDS011;63628;47.656;11.310;2024-03-22T07:12:04;5.87;;;4.07;;
75050;SDS011;63628;47.656;11.310;2024-03-22T07:14:30;3.47;;;2.53;;
75050;SDS011;63628;47.656;11.310;2024-03-22T07:16:55;2.90;;;2.13;;
75050;SDS011;63628;47.656;11.310;2024-03-22T07:19:21;4.53;;;3.30;;
75050;SDS011;63628;47.656;11.310;2024-03-22T07:21:47;8.47;;;4.93;;
75050;SDS011;63628;47.656;11.310;2024-03-22T07:24:13;7.50;;;5.90;;
75050;SDS011;63628;47.656;11.310;2024-03-22T07:26:39;5.27;;;4.27;;
75050;SDS011;63628;47.656;11.310;2024-03-22T07:29:04;3.30;;;3.00;;
75050;SDS011;63628;47.656;11.310;2024-03-22T07:31:30;4.73;;;3.40;;
75050;SDS011;63628;47.656;11.310;2024-03-22T07:33:56;14.77;;;8.17;;
75050;SDS011;63628;47.656;11.310;2024-03-22T07:36:21;10.90;;;7.77;;
75050;SDS011;63628;47.656;11.310;2024-03-22T07:38:47;7.80;;;4.53;;
75050;SDS011;63628;47.656;11.310;2024-03-22T07:41:15;7.77;;;5.57;;
75050;SDS011;63628;47.656;11.310;2024-03-22T07:43:41;7.30;;;5.60;;
75050;SDS011;63628;47.656;11.310;2024-03-22T07:46:07;7.70;;;4.97;;
75050;SDS011;63628;47.656;11.310;2024-03-22T07:48:32;5.15;;;3.47;;
75050;SDS011;63628;47.656;11.310;2024-03-22T07:50:58;7.72;;;5.07;;
75050;SDS011;63628;47.656;11.310;2024-03-22T07:53:24;4.45;;;3.60;;
75050;SDS011;63628;47.656;11.310;2024-03-22T07:55:50;7.18;;;5.22;;
75050;SDS011;63628;47.656;11.310;2024-03-22T07:58:15;4.93;;;4.05;;
75050;SDS011;63628;47.656;11.310;2024-03-22T08:00:41;7.80;;;4.70;;
75050;SDS011;63628;47.656;11.310;2024-03-22T08:03:07;5.90;;;3.65;;
75050;SDS011;63628;47.656;11.310;2024-03-22T08:05:39;3.58;;;2.42;;
75050;SDS011;63628;47.656;11.310;2024-03-22T08:08:04;3.65;;;2.70;;
75050;SDS011;63628;47.656;11.310;2024-03-22T08:10:30;3.80;;;2.78;;
75050;SDS011;63628;47.656;11.310;2024-03-22T08:12:56;3.13;;;2.70;;
75050;SDS011;63628;47.656;11.310;2024-03-22T08:15:21;4.97;;;2.90;;
75050;SDS011;63628;47.656;11.310;2024-03-22T08:17:47;6.43;;;3.30;;
75050;SDS011;63628;47.656;11.310;2024-03-22T08:20:12;4.68;;;3.00;;
75050;SDS011;63628;47.656;11.310;2024-03-22T08:22:38;10.20;;;2.60;;
75050;SDS011;63628;47.656;11.310;2024-03-22T08:25:04;4.70;;;2.80;;
75050;SDS011;63628;47.656;11.310;2024-03-22T08:27:32;4.75;;;2.88;;
75050;SDS011;63628;47.656;11.310;2024-03-22T08:29:59;5.93;;;2.88;;
75050;SDS011;63628;47.656;11.310;2024-03-22T08:32:25;5.68;;;3.13;;
75050;SDS011;63628;47.656;11.310;2024-03-22T08:34:51;7.10;;;2.50;;
75050;SDS011;63628;47.656;11.310;2024-03-22T08:37:16;3.60;;;2.25;;
75050;SDS011;63628;47.656;11.310;2024-03-22T08:39:43;4.60;;;2.47;;
75050;SDS011;63628;47.656;11.310;2024-03-22T08:42:08;5.57;;;3.30;;
75050;SDS011;63628;47.656;11.310;2024-03-22T08:44:34;4.82;;;2.75;;
75050;SDS011;63628;47.656;11.310;2024-03-22T08:47:00;2.72;;;2.30;;
75050;SDS011;63628;47.656;11.310;2024-03-22T08:49:26;3.17;;;2.30;;
75050;SDS011;63628;47.656;11.310;2024-03-22T08:51:51;3.15;;;2.30;;
75050;SDS011;63628;47.656;11.310;2024-03-22T08:54:17;2.88;;;1.65;;
75050;SDS011;63628;47.656;11.310;2024-03-22T08:56:43;2.92;;;2.00;;
75050;SDS011;63628;47.656;11.310;2024-03-22T08:59:08;2.35;;;2.15;;
75050;SDS011;63628;47.656;11.310;2024-03-22T09:01:34;2.03;;;1.48;;
75050;SDS011;63628;47.656;11.310;2024-03-22T09:04:00;2.30;;;1.80;;
75050;SDS011;63628;47.656;11.310;2024-03-22T09:06:26;4.80;;;2.00;;
75050;SDS011;63628;47.656;11.310;2024-03-22T09:08:51;1.98;;;1.73;;
75050;SDS011;63628;47.656;11.310;2024-03-22T09:11:17;2.08;;;1.88;;
75050;SDS011;63628;47.656;11.310;2024-03-22T09:13:43;2.88;;;1.25;;
75050;SDS011;63628;47.656;11.310;2024-03-22T09:16:14;2.25;;;1.70;;
75050;SDS011;63628;47.656;11.310;2024-03-22T09:18:41;3.30;;;1.80;;
75050;SDS011;63628;47.656;11.310;2024-03-22T09:21:06;2.85;;;2.30;;
75050;SDS011;63628;47.656;11.310;2024-03-22T09:23:34;1.80;;;1.55;;
75050;SDS011;63628;47.656;11.310;2024-03-22T09:25:59;1.52;;;1.08;;
75050;SDS011;63628;47.656;11.310;2024-03-22T09:28:25;1.80;;;1.23;;
75050;SDS011;63628;47.656;11.310;2024-03-22T09:30:51;3.55;;;1.50;;
75050;SDS011;63628;47.656;11.310;2024-03-22T09:33:17;1.52;;;0.98;;
75050;SDS011;63628;47.656;11.310;2024-03-22T09:35:43;1.60;;;0.90;;
75050;SDS011;63628;47.656;11.310;2024-03-22T09:38:08;1.73;;;1.05;;
75050;SDS011;63628;47.656;11.310;2024-03-22T09:40:34;2.30;;;1.25;;
75050;SDS011;63628;47.656;11.310;2024-03-22T09:43:04;2.45;;;1.13;;
75050;SDS011;63628;47.656;11.310;2024-03-22T09:45:32;2.47;;;1.60;;
75050;SDS011;63628;47.656;11.310;2024-03-22T09:47:58;2.17;;;1.00;;
75050;SDS011;63628;47.656;11.310;2024-03-22T09:50:23;2.40;;;1.33;;
75050;SDS011;63628;47.656;11.310;2024-03-22T09:52:51;1.80;;;1.08;;
75050;SDS011;63628;47.656;11.310;2024-03-22T09:55:19;2.22;;;1.35;;
75050;SDS011;63628;47.656;11.310;2024-03-22T09:57:48;2.95;;;0.85;;
75050;SDS011;63628;47.656;11.310;2024-03-22T10:00:16;3.13;;;1.00;;
75050;SDS011;63628;47.656;11.310;2024-03-22T10:02:45;1.77;;;1.08;;
75050;SDS011;63628;47.656;11.310;2024-03-22T10:05:12;1.93;;;0.90;;
75050;SDS011;63628;47.656;11.310;2024-03-22T10:07:38;1.40;;;0.82;;
75050;SDS011;63628;47.656;11.310;2024-03-22T10:10:04;2.17;;;1.30;;
75050;SDS011;63628;47.656;11.310;2024-03-22T10:12:30;3.10;;;0.90;;
75050;SDS011;63628;47.656;11.310;2024-03-22T10:14:55;1.85;;;1.10;;
75050;SDS011;63628;47.656;11.310;2024-03-22T10:17:21;2.72;;;0.88;;
75050;SDS011;63628;47.656;11.310;2024-03-22T10:19:50;1.50;;;1.08;;
75050;SDS011;63628;47.656;11.310;2024-03-22T10:22:16;1.30;;;0.88;;
75050;SDS011;63628;47.656;11.310;2024-03-22T10:24:42;2.85;;;1.70;;
75050;SDS011;63628;47.656;11.310;2024-03-22T10:27:08;2.33;;;1.80;;
75050;SDS011;63628;47.656;11.310;2024-03-22T10:29:35;3.17;;;1.27;;
75050;SDS011;63628;47.656;11.310;2024-03-22T10:32:01;1.42;;;0.75;;
75050;SDS011;63628;47.656;11.310;2024-03-22T10:34:27;2.22;;;1.42;;
75050;SDS011;63628;47.656;11.310;2024-03-22T10:36:55;2.90;;;0.98;;
75050;SDS011;63628;47.656;11.310;2024-03-22T10:39:22;1.67;;;1.00;;
75050;SDS011;63628;47.656;11.310;2024-03-22T10:41:49;3.65;;;0.70;;
75050;SDS011;63628;47.656;11.310;2024-03-22T10:44:15;5.88;;;1.08;;
75050;SDS011;63628;47.656;11.310;2024-03-22T10:46:45;1.70;;;1.10;;
75050;SDS011;63628;47.656;11.310;2024-03-22T10:49:16;5.65;;;1.17;;
75050;SDS011;63628;47.656;11.310;2024-03-22T10:51:54;1.70;;;0.90;;
75050;SDS011;63628;47.656;11.310;2024-03-22T10:54:25;2.80;;;1.48;;
75050;SDS011;63628;47.656;11.310;2024-03-22T10:56:52;1.77;;;0.93;;
75050;SDS011;63628;47.656;11.310;2024-03-22T10:59:19;1.33;;;0.82;;
75050;SDS011;63628;47.656;11.310;2024-03-22T11:01:46;2.42;;;1.00;;
75050;SDS011;63628;47.656;11.310;2024-03-22T11:04:14;2.03;;;1.17;;
75050;SDS011;63628;47.656;11.310;2024-03-22T11:06:46;1.45;;;0.88;;
75050;SDS011;63628;47.656;11.310;2024-03-22T11:09:18;2.58;;;1.10;;
75050;SDS011;63628;47.656;11.310;2024-03-22T11:11:46;3.00;;;1.23;;
75050;SDS011;63628;47.656;11.310;2024-03-22T11:14:12;1.65;;;0.70;;
75050;SDS011;63628;47.656;11.310;2024-03-22T11:16:37;1.00;;;0.85;;
75050;SDS011;63628;47.656;11.310;2024-03-22T11:19:04;2.70;;;1.35;;
75050;SDS011;63628;47.656;11.310;2024-03-22T11:21:33;1.05;;;0.75;;
75050;SDS011;63628;47.656;11.310;2024-03-22T11:24:02;1.47;;;0.73;;
75050;SDS011;63628;47.656;11.310;2024-03-22T11:26:27;1.20;;;1.02;;
75050;SDS011;63628;47.656;11.310;2024-03-22T11:28:53;3.20;;;1.02;;
75050;SDS011;63628;47.656;11.310;2024-03-22T11:31:18;2.55;;;1.55;;
75050;SDS011;63628;47.656;11.310;2024-03-22T11:33:47;1.10;;;0.68;;
75050;SDS011;63628;47.656;11.310;2024-03-22T11:36:13;2.25;;;0.80;;
75050;SDS011;63628;47.656;11.310;2024-03-22T11:38:39;1.58;;;0.90;;
75050;SDS011;63628;47.656;11.310;2024-03-22T11:41:04;2.53;;;1.10;;
75050;SDS011;63628;47.656;11.310;2024-03-22T11:43:31;1.48;;;0.60;;
75050;SDS011;63628;47.656;11.310;2024-03-22T11:45:57;1.63;;;1.17;;
75050;SDS011;63628;47.656;11.310;2024-03-22T11:48:23;1.40;;;0.70;;
75050;SDS011;63628;47.656;11.310;2024-03-22T11:50:49;1.58;;;1.02;;
75050;SDS011;63628;47.656;11.310;2024-03-22T11:53:15;2.20;;;0.80;;
75050;SDS011;63628;47.656;11.310;2024-03-22T11:55:42;1.45;;;0.60;;
75050;SDS011;63628;47.656;11.310;2024-03-22T11:58:11;2.38;;;0.80;;
75050;SDS011;63628;47.656;11.310;2024-03-22T12:00:36;1.08;;;0.70;;
75050;SDS011;63628;47.656;11.310;2024-03-22T12:03:05;1.83;;;0.77;;
75050;SDS011;63628;47.656;11.310;2024-03-22T12:05:31;1.15;;;0.70;;
75050;SDS011;63628;47.656;11.310;2024-03-22T12:07:57;2.90;;;1.40;;
75050;SDS011;63628;47.656;11.310;2024-03-22T12:10:22;2.85;;;0.85;;
75050;SDS011;63628;47.656;11.310;2024-03-22T12:12:48;1.40;;;0.90;;
75050;SDS011;63628;47.656;11.310;2024-03-22T12:15:13;1.63;;;0.88;;
75050;SDS011;63628;47.656;11.310;2024-03-22T12:17:39;3.10;;;0.75;;
75050;SDS011;63628;47.656;11.310;2024-03-22T12:20:07;1.77;;;0.80;;
75050;SDS011;63628;47.656;11.310;2024-03-22T12:22:34;3.97;;;1.20;;
75050;SDS011;63628;47.656;11.310;2024-03-22T12:24:59;3.47;;;1.75;;
75050;SDS011;63628;47.656;11.310;2024-03-22T12:27:25;2.10;;;1.35;;
75050;SDS011;63628;47.656;11.310;2024-03-22T12:29:51;1.48;;;0.80;;
75050;SDS011;63628;47.656;11.310;2024-03-22T12:32:16;1.67;;;0.93;;
75050;SDS011;63628;47.656;11.310;2024-03-22T12:34:42;2.42;;;0.82;;
75050;SDS011;63628;47.656;11.310;2024-03-22T12:37:08;1.58;;;0.98;;
75050;SDS011;63628;47.656;11.310;2024-03-22T12:39:35;3.55;;;1.40;;
75050;SDS011;63628;47.656;11.310;2024-03-22T12:42:00;4.60;;;1.58;;
75050;SDS011;63628;47.656;11.310;2024-03-22T12:44:26;2.22;;;1.20;;
75050;SDS011;63628;47.656;11.310;2024-03-22T12:46:52;1.42;;;1.15;;
75050;SDS011;63628;47.656;11.310;2024-03-22T12:49:19;1.00;;;0.80;;
75050;SDS011;63628;47.656;11.310;2024-03-22T12:51:45;1.08;;;0.75;;
75050;SDS011;63628;47.656;11.310;2024-03-22T12:54:11;1.95;;;0.70;;
75050;SDS011;63628;47.656;11.310;2024-03-22T12:56:38;2.28;;;1.17;;
75050;SDS011;63628;47.656;11.310;2024-03-22T12:59:04;1.20;;;0.85;;
75050;SDS011;63628;47.656;11.310;2024-03-22T13:01:30;1.35;;;0.77;;
75050;SDS011;63628;47.656;11.310;2024-03-22T13:03:56;1.35;;;0.73;;
75050;SDS011;63628;47.656;11.310;2024-03-22T13:06:22;0.95;;;0.80;;
75050;SDS011;63628;47.656;11.310;2024-03-22T13:08:47;1.23;;;0.93;;
75050;SDS011;63628;47.656;11.310;2024-03-22T13:11:13;1.80;;;0.82;;
75050;SDS011;63628;47.656;11.310;2024-03-22T13:13:39;3.15;;;1.20;;
75050;SDS011;63628;47.656;11.310;2024-03-22T13:16:05;3.13;;;0.82;;
75050;SDS011;63628;47.656;11.310;2024-03-22T13:18:32;0.70;;;0.70;;
75050;SDS011;63628;47.656;11.310;2024-03-22T13:20:57;3.55;;;1.05;;
75050;SDS011;63628;47.656;11.310;2024-03-22T13:23:23;1.77;;;1.05;;
75050;SDS011;63628;47.656;11.310;2024-03-22T13:25:49;3.08;;;1.17;;
75050;SDS011;63628;47.656;11.310;2024-03-22T13:28:15;3.42;;;1.25;;
75050;SDS011;63628;47.656;11.310;2024-03-22T13:30:45;1.13;;;0.85;;
75050;SDS011;63628;47.656;11.310;2024-03-22T13:33:11;4.70;;;1.20;;
75050;SDS011;63628;47.656;11.310;2024-03-22T13:35:36;2.35;;;0.85;;
75050;SDS011;63628;47.656;11.310;2024-03-22T13:38:02;2.13;;;1.00;;
75050;SDS011;63628;47.656;11.310;2024-03-22T13:40:27;3.50;;;1.20;;
75050;SDS011;63628;47.656;11.310;2024-03-22T13:42:53;1.55;;;0.82;;
75050;SDS011;63628;47.656;11.310;2024-03-22T13:45:19;3.30;;;1.17;;
75050;SDS011;63628;47.656;11.310;2024-03-22T13:47:45;2.90;;;1.08;;
75050;SDS011;63628;47.656;11.310;2024-03-22T13:50:11;1.45;;;1.08;;
75050;SDS011;63628;47.656;11.310;2024-03-22T13:52:37;1.48;;;0.80;;
75050;SDS011;63628;47.656;11.310;2024-03-22T13:55:03;3.45;;;1.00;;
75050;SDS011;63628;47.656;11.310;2024-03-22T13:57:30;2.67;;;0.77;;
75050;SDS011;63628;47.656;11.310;2024-03-22T13:59:56;3.75;;;1.20;;
75050;SDS011;63628;47.656;11.310;2024-03-22T14:02:22;2.88;;;1.33;;
75050;SDS011;63628;47.656;11.310;2024-03-22T14:04:48;2.53;;;1.00;;
75050;SDS011;63628;47.656;11.310;2024-03-22T14:07:13;3.00;;;0.88;;
75050;SDS011;63628;47.656;11.310;2024-03-22T14:09:40;1.02;;;0.75;;
75050;SDS011;63628;47.656;11.310;2024-03-22T14:12:06;3.22;;;1.33;;
75050;SDS011;63628;47.656;11.310;2024-03-22T14:14:32;1.88;;;1.27;;
75050;SDS011;63628;47.656;11.310;2024-03-22T14:16:57;2.70;;;1.30;;
75050;SDS011;63628;47.656;11.310;2024-03-22T14:19:23;3.25;;;0.90;;
75050;SDS011;63628;47.656;11.310;2024-03-22T14:21:49;2.42;;;0.90;;
75050;SDS011;63628;47.656;11.310;2024-03-22T14:24:14;2.50;;;0.90;;
75050;SDS011;63628;47.656;11.310;2024-03-22T14:26:41;1.95;;;1.00;;